createdAt,value
2022-12-17T00:02:21.152Z,14.50
2022-12-17T00:05:46.914Z,14.40
2022-12-17T00:09:12.338Z,14.50
2022-12-17T00:12:38.824Z,14.40
2022-12-17T00:16:14.862Z,14.40
2022-12-17T00:19:40.357Z,14.40
2022-12-17T00:23:05.458Z,14.40
2022-12-17T00:26:30.770Z,14.40
2022-12-17T00:29:57.524Z,14.30
2022-12-17T00:33:39.014Z,14.30
2022-12-17T00:37:04.764Z,14.30
2022-12-17T00:40:29.887Z,14.30
2022-12-17T00:43:56.347Z,14.20
2022-12-17T00:47:23.556Z,14.20
2022-12-17T00:50:48.825Z,14.20
2022-12-17T00:54:14.185Z,14.20
2022-12-17T00:57:39.448Z,14.20
2022-12-17T01:01:05.053Z,14.20
2022-12-17T01:04:32.144Z,14.10
2022-12-17T01:07:57.369Z,14.10
2022-12-17T01:11:24.590Z,14.10
2022-12-17T01:14:49.552Z,14.10
2022-12-17T01:18:16.333Z,14.10
2022-12-17T01:21:43.126Z,14.10
2022-12-17T01:25:08.572Z,14.00
2022-12-17T01:28:40.805Z,14.00
2022-12-17T01:32:06.923Z,14.00
2022-12-17T01:35:32.948Z,14.00
2022-12-17T01:38:59.805Z,14.00
2022-12-17T01:42:28.132Z,14.00
2022-12-17T01:45:55.356Z,14.00
2022-12-17T01:49:20.917Z,13.90
2022-12-17T01:52:46.297Z,13.90
2022-12-17T01:56:12.908Z,13.80
2022-12-17T01:59:40.182Z,13.80
2022-12-17T02:03:05.211Z,13.80
2022-12-17T02:06:33.909Z,13.80
2022-12-17T02:10:01.063Z,13.80
2022-12-17T02:13:31.241Z,13.80
2022-12-17T02:17:02.064Z,13.80
2022-12-17T02:20:35.636Z,13.70
2022-12-17T02:24:05.436Z,13.70
2022-12-17T02:27:32.809Z,13.70
2022-12-17T02:31:06.786Z,13.70
2022-12-17T02:34:33.552Z,13.70
2022-12-17T02:38:05.228Z,13.70
2022-12-17T02:41:33.299Z,13.60
2022-12-17T02:45:01.325Z,13.60
2022-12-17T02:48:27.211Z,13.60
2022-12-17T02:51:53.021Z,13.50
2022-12-17T02:55:18.529Z,13.50
2022-12-17T02:58:43.997Z,13.50
2022-12-17T03:02:10.961Z,13.50
2022-12-17T03:05:44.952Z,13.50
2022-12-17T03:09:10.739Z,13.50
2022-12-17T03:12:35.785Z,13.50
2022-12-17T03:16:01.133Z,13.50
2022-12-17T03:19:28.662Z,13.40
2022-12-17T03:22:54.076Z,13.40
2022-12-17T03:26:20.064Z,13.40
2022-12-17T03:29:45.327Z,13.40
2022-12-17T03:33:10.814Z,13.30
2022-12-17T03:36:37.882Z,13.30
2022-12-17T03:40:03.163Z,13.30
2022-12-17T03:43:29.552Z,13.30
2022-12-17T03:46:54.747Z,13.30
2022-12-17T03:50:19.827Z,13.30
2022-12-17T03:53:46.343Z,13.20
2022-12-17T03:57:16.020Z,13.20
2022-12-17T04:00:42.048Z,13.20
2022-12-17T04:04:18.650Z,13.20
2022-12-17T04:07:44.043Z,13.20
2022-12-17T04:11:10.661Z,13.20
2022-12-17T04:14:35.854Z,13.10
2022-12-17T04:18:01.331Z,13.10
2022-12-17T04:21:26.628Z,13.10
2022-12-17T04:24:52.244Z,13.10
2022-12-17T04:28:18.818Z,13.10
2022-12-17T04:31:43.893Z,13.10
2022-12-17T04:35:11.228Z,13.00
2022-12-17T04:38:36.761Z,13.00
2022-12-17T04:42:02.343Z,13.00
2022-12-17T04:45:29.253Z,13.00
2022-12-17T04:48:54.363Z,13.00
2022-12-17T04:52:19.480Z,12.90
2022-12-17T04:55:41.289Z,12.90
2022-12-17T04:59:06.683Z,12.90
2022-12-17T05:02:36.082Z,12.90
2022-12-17T05:06:04.885Z,12.90
2022-12-17T05:09:30.155Z,12.90
2022-12-17T05:12:55.416Z,12.80
2022-12-17T05:16:20.745Z,12.90
2022-12-17T05:19:50.911Z,12.80
2022-12-17T05:23:23.584Z,12.80
2022-12-17T05:26:48.895Z,12.80
2022-12-17T05:30:10.639Z,12.80
2022-12-17T05:33:36.786Z,12.80
2022-12-17T05:37:00.095Z,12.70
2022-12-17T05:40:26.945Z,12.70
2022-12-17T05:43:52.152Z,12.70
2022-12-17T05:47:17.383Z,12.70
2022-12-17T05:50:42.599Z,12.70
2022-12-17T05:54:10.116Z,12.70
2022-12-17T05:57:35.566Z,12.70
2022-12-17T06:01:01.196Z,12.70
2022-12-17T06:04:27.688Z,12.70
2022-12-17T06:07:52.928Z,12.70
2022-12-17T06:11:19.636Z,12.60
2022-12-17T06:14:44.905Z,12.60
2022-12-17T06:18:16.668Z,12.60
2022-12-17T06:21:43.025Z,12.60
2022-12-17T06:25:08.230Z,12.60
2022-12-17T06:28:35.377Z,12.60
2022-12-17T06:32:15.259Z,12.60
2022-12-17T06:35:40.346Z,12.50
2022-12-17T06:39:05.924Z,12.50
2022-12-17T06:42:31.504Z,12.50
2022-12-17T06:45:58.373Z,12.50
2022-12-17T06:49:23.833Z,12.50
2022-12-17T06:52:49.414Z,12.50
2022-12-17T06:56:15.802Z,12.40
2022-12-17T06:59:41.228Z,12.40
2022-12-17T07:03:14.483Z,12.40
2022-12-17T07:06:40.165Z,12.40
2022-12-17T07:10:10.610Z,12.40
2022-12-17T07:13:39.639Z,12.40
2022-12-17T07:17:05.310Z,12.30
2022-12-17T07:20:32.216Z,12.30
2022-12-17T07:24:00.181Z,12.30
2022-12-17T07:27:25.346Z,12.30
2022-12-17T07:30:55.593Z,12.20
2022-12-17T07:34:21.535Z,12.20
2022-12-17T07:37:56.612Z,12.20
2022-12-17T07:41:22.141Z,12.30
2022-12-17T07:44:47.613Z,12.20
2022-12-17T07:48:27.458Z,12.20
2022-12-17T07:51:53.085Z,12.20
2022-12-17T07:55:19.921Z,12.20
2022-12-17T07:58:44.845Z,12.20
2022-12-17T08:02:09.989Z,12.20
2022-12-17T08:05:35.765Z,12.10
2022-12-17T08:09:01.185Z,12.10
2022-12-17T08:12:28.048Z,12.20
2022-12-17T08:15:53.255Z,12.10
2022-12-17T08:19:18.325Z,12.10
2022-12-17T08:22:54.786Z,12.10
2022-12-17T08:26:20.060Z,12.10
2022-12-17T08:29:46.681Z,12.10
2022-12-17T08:33:11.972Z,12.10
2022-12-17T08:36:37.235Z,12.10
2022-12-17T08:40:02.276Z,12.00
2022-12-17T08:43:27.681Z,12.00
2022-12-17T08:46:54.158Z,12.00
2022-12-17T08:50:19.418Z,12.00
2022-12-17T08:53:44.886Z,12.00
2022-12-17T08:57:10.064Z,12.00
2022-12-17T09:00:41.543Z,12.00
2022-12-17T09:04:08.103Z,12.00
2022-12-17T09:07:33.155Z,12.00
2022-12-17T09:10:58.779Z,12.00
2022-12-17T09:14:24.575Z,12.00
2022-12-17T09:17:50.014Z,12.00
2022-12-17T09:21:16.479Z,12.00
2022-12-17T09:24:38.269Z,11.90
2022-12-17T09:28:03.591Z,11.90
2022-12-17T09:31:32.427Z,11.90
2022-12-17T09:35:02.370Z,11.90
2022-12-17T09:38:30.992Z,11.90
2022-12-17T09:42:00.170Z,11.90
2022-12-17T09:45:27.772Z,11.90
2022-12-17T09:48:56.903Z,11.90
2022-12-17T09:52:27.200Z,11.90
2022-12-17T09:55:58.459Z,11.90
2022-12-17T09:59:24.075Z,11.90
2022-12-17T10:02:50.517Z,11.90
2022-12-17T10:06:22.252Z,11.90
2022-12-17T10:09:47.860Z,11.90
2022-12-17T10:13:14.948Z,11.90
2022-12-17T10:16:44.704Z,11.90
2022-12-17T10:20:12.030Z,11.90
2022-12-17T10:23:44.527Z,11.90
2022-12-17T10:27:10.095Z,11.80
2022-12-17T10:30:51.960Z,11.80
2022-12-17T10:34:17.568Z,11.90
2022-12-17T10:37:50.195Z,11.80
2022-12-17T10:41:15.297Z,11.80
2022-12-17T10:44:41.373Z,11.80
2022-12-17T10:48:08.118Z,11.80
2022-12-17T10:51:38.019Z,11.80
2022-12-17T10:55:12.916Z,11.80
2022-12-17T10:58:39.339Z,11.80
2022-12-17T11:02:04.461Z,11.80
2022-12-17T11:05:42.734Z,11.80
2022-12-17T11:09:08.237Z,11.80
2022-12-17T11:12:33.797Z,11.80
2022-12-17T11:16:02.270Z,11.80
2022-12-17T11:19:45.085Z,11.80
2022-12-17T11:23:24.344Z,11.80
2022-12-17T11:26:50.113Z,11.80
2022-12-17T11:30:15.454Z,11.70
2022-12-17T11:33:42.382Z,11.80
2022-12-17T11:37:09.969Z,11.70
2022-12-17T11:40:40.082Z,11.70
2022-12-17T11:44:08.017Z,11.80
2022-12-17T11:47:38.238Z,11.70
2022-12-17T11:51:04.887Z,11.70
2022-12-17T11:54:33.199Z,11.70
2022-12-17T11:58:02.594Z,11.70
2022-12-17T12:01:32.234Z,11.70
2022-12-17T12:05:12.357Z,11.70
2022-12-17T12:08:40.270Z,11.70
2022-12-17T12:12:08.126Z,11.70
2022-12-17T12:15:40.036Z,11.70
2022-12-17T12:19:09.041Z,11.70
2022-12-17T12:22:36.241Z,11.70
2022-12-17T12:26:16.949Z,11.70
2022-12-17T12:29:48.137Z,11.70
2022-12-17T12:33:17.745Z,11.70
2022-12-17T12:36:43.305Z,11.60
2022-12-17T12:40:14.865Z,11.70
2022-12-17T12:43:40.849Z,11.70
2022-12-17T12:47:08.453Z,11.70
2022-12-17T12:50:38.260Z,11.70
2022-12-17T12:54:03.909Z,11.60
2022-12-17T12:57:49.632Z,11.60
2022-12-17T13:01:15.596Z,11.60
2022-12-17T13:04:49.816Z,11.60
2022-12-17T13:08:03.611Z,11.60
2022-12-17T13:11:23.023Z,11.60
2022-12-17T13:14:32.674Z,11.60
2022-12-17T13:17:42.516Z,11.60
2022-12-17T13:20:59.566Z,11.60
2022-12-17T13:24:26.569Z,11.60
2022-12-17T13:27:39.505Z,11.60
2022-12-17T13:30:47.638Z,11.60
2022-12-17T13:33:59.283Z,11.60
2022-12-17T13:37:08.945Z,11.60
2022-12-17T13:40:37.176Z,11.60
2022-12-17T13:43:45.855Z,11.60
2022-12-17T13:46:54.422Z,11.60
2022-12-17T13:53:34.105Z,11.60
2022-12-17T13:56:43.695Z,11.60
2022-12-17T13:59:52.528Z,11.50
2022-12-17T14:03:12.030Z,11.50
2022-12-17T14:06:20.027Z,11.50
2022-12-17T14:09:33.513Z,11.50
2022-12-17T14:12:42.705Z,11.50
2022-12-17T14:15:52.815Z,11.50
2022-12-17T14:19:01.121Z,11.50
2022-12-17T14:22:10.519Z,11.40
2022-12-17T14:25:19.425Z,11.50
2022-12-17T14:28:33.151Z,11.50
2022-12-17T14:31:40.947Z,11.50
2022-12-17T14:34:48.826Z,11.50
2022-12-17T14:37:57.373Z,11.40
2022-12-17T14:41:26.691Z,11.40
2022-12-17T14:44:36.222Z,11.40
2022-12-17T14:47:54.061Z,11.40
2022-12-17T14:51:02.070Z,11.40
2022-12-17T14:54:20.817Z,11.40
2022-12-17T14:57:28.875Z,11.40
2022-12-17T15:00:39.839Z,11.40
2022-12-17T15:03:47.811Z,11.50
2022-12-17T15:06:56.216Z,11.50
2022-12-17T15:10:10.427Z,11.50
2022-12-17T15:13:18.215Z,11.50
2022-12-17T15:16:28.181Z,11.60
2022-12-17T15:19:36.095Z,11.60
2022-12-17T15:22:43.917Z,11.70
2022-12-17T15:25:52.579Z,11.80
2022-12-17T15:29:00.512Z,11.80
2022-12-17T15:32:11.098Z,11.90
2022-12-17T15:35:19.230Z,11.90
2022-12-17T15:38:27.368Z,12.00
2022-12-17T15:41:51.875Z,12.00
2022-12-17T15:44:59.821Z,12.00
2022-12-17T15:48:09.208Z,12.00
2022-12-17T15:51:19.743Z,12.00
2022-12-17T15:54:28.124Z,12.00
2022-12-17T15:57:36.237Z,12.00
2022-12-17T16:00:44.372Z,12.00
2022-12-17T16:03:53.959Z,12.00
2022-12-17T16:07:01.989Z,11.90
2022-12-17T16:10:10.809Z,12.00
2022-12-17T16:13:18.765Z,12.00
2022-12-17T16:16:26.917Z,12.00
2022-12-17T16:19:36.522Z,11.90
2022-12-17T16:22:44.406Z,12.00
2022-12-17T16:25:57.945Z,12.00
2022-12-17T16:29:06.618Z,12.00
2022-12-17T16:32:15.371Z,12.10
2022-12-17T16:35:24.983Z,12.10
2022-12-17T16:38:33.269Z,12.20
2022-12-17T16:41:41.155Z,12.20
2022-12-17T16:44:49.127Z,12.30
2022-12-17T16:47:57.262Z,12.30
2022-12-17T16:51:15.705Z,12.40
2022-12-17T16:54:25.847Z,12.50
2022-12-17T16:57:33.921Z,12.50
2022-12-17T17:00:42.048Z,12.60
2022-12-17T17:03:50.370Z,12.60
2022-12-17T17:06:59.674Z,12.70
2022-12-17T17:10:08.347Z,12.80
2022-12-17T17:13:16.573Z,12.80
2022-12-17T17:16:25.143Z,12.80
2022-12-17T17:19:32.983Z,12.80
2022-12-17T17:22:42.557Z,12.80
2022-12-17T17:25:58.185Z,12.90
2022-12-17T17:29:06.771Z,12.80
2022-12-17T17:32:14.725Z,12.80
2022-12-17T17:35:22.905Z,12.80
2022-12-17T17:38:33.341Z,12.80
2022-12-17T17:41:41.191Z,12.80
2022-12-17T17:44:49.768Z,12.80
2022-12-17T17:47:57.899Z,12.80
2022-12-17T17:51:07.203Z,12.80
2022-12-17T17:54:16.490Z,12.80
2022-12-17T17:57:24.543Z,12.80
2022-12-17T18:00:32.343Z,12.80
2022-12-17T18:03:40.338Z,12.80
2022-12-17T18:07:23.211Z,12.70
2022-12-17T18:10:18.375Z,12.80
2022-12-17T18:13:43.889Z,12.80
2022-12-17T18:16:52.171Z,12.80
2022-12-17T18:19:59.940Z,12.80
2022-12-17T18:23:08.169Z,12.80
2022-12-17T18:26:18.433Z,12.90
2022-12-17T18:29:28.830Z,12.90
2022-12-17T18:32:36.934Z,12.90
2022-12-17T18:35:44.991Z,12.90
2022-12-17T18:38:56.673Z,13.00
2022-12-17T18:42:24.212Z,13.00
2022-12-17T18:45:32.265Z,13.00
2022-12-17T18:48:40.609Z,13.00
2022-12-17T18:51:49.822Z,13.00
2022-12-17T18:54:57.918Z,13.00
2022-12-17T18:58:07.633Z,13.00
2022-12-17T19:01:23.245Z,13.00
2022-12-17T19:04:32.901Z,13.00
2022-12-17T19:07:41.250Z,13.00
2022-12-17T19:10:49.304Z,13.00
2022-12-17T19:13:58.730Z,13.00
2022-12-17T19:17:06.630Z,13.00
2022-12-17T19:20:14.839Z,13.00
2022-12-17T19:23:23.104Z,13.00
2022-12-17T19:26:31.410Z,13.00
2022-12-17T19:29:46.237Z,13.00
2022-12-17T19:32:59.431Z,13.00
2022-12-17T19:36:08.662Z,13.10
2022-12-17T19:39:17.852Z,13.10
2022-12-17T19:42:26.900Z,13.10
2022-12-17T19:45:37.740Z,13.10
2022-12-17T19:48:48.347Z,13.10
2022-12-17T19:51:57.138Z,13.20
2022-12-17T19:55:06.452Z,13.20
2022-12-17T19:58:15.648Z,13.20
2022-12-17T20:01:26.389Z,13.20
2022-12-17T20:04:34.967Z,13.20
2022-12-17T20:07:43.360Z,13.20
2022-12-17T20:10:51.377Z,13.20
2022-12-17T20:14:04.777Z,13.20
2022-12-17T20:17:14.360Z,13.30
2022-12-17T20:20:22.604Z,13.30
2022-12-17T20:23:30.761Z,13.20
2022-12-17T20:26:39.089Z,13.20
2022-12-17T20:29:47.947Z,13.30
2022-12-17T20:32:57.720Z,13.30
2022-12-17T20:36:06.110Z,13.30
2022-12-17T20:39:14.154Z,13.30
2022-12-17T20:42:22.231Z,13.30
2022-12-17T20:45:30.456Z,13.30
2022-12-17T20:48:40.264Z,13.40
2022-12-17T20:51:48.547Z,13.40
2022-12-17T20:54:56.591Z,13.40
2022-12-17T20:58:04.658Z,13.40
2022-12-17T21:01:14.193Z,13.50
2022-12-17T21:04:23.528Z,13.50
2022-12-17T21:07:31.390Z,13.50
2022-12-17T21:10:39.603Z,13.60
2022-12-17T21:13:47.723Z,13.60
2022-12-17T21:16:55.931Z,13.60
2022-12-17T21:20:06.382Z,13.70
2022-12-17T21:23:17.015Z,13.70
2022-12-17T21:26:25.711Z,13.80
2022-12-17T21:29:33.613Z,13.80
2022-12-17T21:32:41.670Z,13.90
2022-12-17T21:35:52.038Z,13.90
2022-12-17T21:38:59.920Z,14.00
2022-12-17T21:42:25.265Z,14.10
2022-12-17T21:45:37.533Z,14.10
2022-12-17T21:48:46.162Z,14.10
2022-12-17T21:51:55.660Z,14.20
2022-12-17T21:55:03.779Z,14.30
2022-12-17T21:58:12.560Z,14.30
2022-12-17T22:01:21.902Z,14.40
2022-12-17T22:04:29.858Z,14.50
2022-12-17T22:07:45.314Z,14.50
2022-12-17T22:10:58.673Z,14.50
2022-12-17T22:14:10.066Z,14.60
2022-12-17T22:17:19.752Z,14.60
2022-12-17T22:20:27.657Z,14.60
2022-12-17T22:23:37.457Z,14.60
2022-12-17T22:26:46.228Z,14.60
2022-12-17T22:30:11.456Z,14.70
2022-12-17T22:33:44.298Z,14.70
2022-12-17T22:39:01.077Z,14.60
2022-12-17T22:44:16.926Z,14.60
2022-12-17T22:44:46.624Z,14.60
2022-12-17T22:47:13.411Z,14.60
2022-12-17T22:50:26.058Z,14.60
2022-12-17T22:53:36.423Z,14.60
2022-12-17T22:57:35.059Z,14.60
2022-12-17T23:00:17.440Z,14.60
2022-12-17T23:03:25.867Z,14.50
2022-12-17T23:06:33.762Z,14.50
2022-12-17T23:09:41.840Z,14.50
2022-12-17T23:12:54.243Z,14.50
2022-12-17T23:16:02.255Z,14.50
2022-12-17T23:19:10.180Z,14.50
2022-12-17T23:22:22.127Z,14.50
2022-12-17T23:25:30.756Z,14.60
2022-12-17T23:28:43.053Z,14.60
2022-12-17T23:31:51.243Z,14.60
2022-12-17T23:34:59.077Z,14.60
2022-12-17T23:38:07.183Z,14.60
2022-12-17T23:41:19.890Z,14.70
2022-12-17T23:44:29.337Z,14.70
2022-12-17T23:47:37.325Z,14.70
2022-12-17T23:50:45.466Z,14.70
2022-12-17T23:53:55.019Z,14.70
2022-12-17T23:57:03.189Z,14.70
